Colorado Springs, CO

7:42 AM MDT on August 30, 2015 (GMT -0600)
City Of Colorado Springs Municipal | | Change Station
CLOSE
Current Station
Airport
Location: Colorado Springs,
Elevation: 6171 ft
Nearby Weather Stations

Elev 6171 ft 38.81 °N, 104.69 °W | Updated 48 minutes ago

Mostly Cloudy
Mostly Cloudy
54 °F
Feels Like 54 °F
N
9
Wind Variable Wind from NNE

Today
High -- | Low -- °F
--% Chance of Precip.
Yesterday
High -- | Low -- °F
Precip. -- in
6:25 AM 7:32 PM
Full, 99% visible
Pressure 29.98 in
Visibility 10.0 miles
Clouds Few 14000 ft
Scattered Clouds 18000 ft
Scattered Clouds 24000 ft
Dew Point 44 °F
Humidity 69%
Rainfall 0.00 in
Snow Depth Not available.
UV 0 out of 12
Pollen 10.40 out of 12
Air Quality Not available.
Flu Activity Not available.
METAR KCOS 301254Z 02008KT 10SM FEW140 SCT180 SCT240 12/07 A3020 RMK AO2 SLP150 T01220067
Pressure 29.98 in
Visibility 10.0 miles
Clouds Few 14000 ft
Scattered Clouds 18000 ft
Scattered Clouds 24000 ft
Dew Point 44 °F
Humidity 69%
Rainfall 0.00 in
Snow Depth Not available.
UV 0 out of 12
Pollen 10.40 out of 12
Air Quality Not available.
Flu Activity Not available.
METAR KCOS 301254Z 02008KT 10SM FEW140 SCT180 SCT240 12/07 A3020 RMK AO2 SLP150 T01220067

10-Day Weather Forecast

×

Almanac

Astronomy

Aug. 30, 2015 Rise Set
Actual Time
Civil Twilight
Nautical Twilight
Astronomical Twilight
Moon
Length of Visible Light
Length of Day
Tomorrow will be .
, % of the Moon is Illuminated

Today's Extremes

State Highs State Lows

Community

WunderPhotos

Upload Photos

1,850,954 photos uploaded!

WunderBlogs® & News

Nearby

Air Quality

  Air Quality AQ Index Pollutant
Not available.

Snow Depth

Station Depth Elevation

Earthquake Activity

City Distance Mag. Time & Date
Minimum magnitude displayed is 2.5.

Coastal Water Temperatures

Place Temperature

Stations

Nearby Weather Stations

Station Location Temp. Windchill Dew Point Humidity Wind Precip. Elev Updated Type